sensor_id;sensor_type;location;lat;lon;timestamp;P1;durP1;ratioP1;P2;durP2;ratioP2
52858;SDS011;38721;53.098;6.596;2023-04-10T00:01:13;46.33;;;32.30;;
52858;SDS011;38721;53.098;6.596;2023-04-10T00:03:38;51.95;;;33.67;;
52858;SDS011;38721;53.098;6.596;2023-04-10T00:06:08;46.22;;;32.22;;
52858;SDS011;38721;53.098;6.596;2023-04-10T00:08:34;47.60;;;33.10;;
52858;SDS011;38721;53.098;6.596;2023-04-10T00:10:59;47.80;;;34.05;;
52858;SDS011;38721;53.098;6.596;2023-04-10T00:13:25;46.40;;;33.50;;
52858;SDS011;38721;53.098;6.596;2023-04-10T00:15:51;50.20;;;33.88;;
52858;SDS011;38721;53.098;6.596;2023-04-10T00:18:16;48.25;;;33.90;;
52858;SDS011;38721;53.098;6.596;2023-04-10T00:20:42;43.75;;;32.00;;
52858;SDS011;38721;53.098;6.596;2023-04-10T00:23:08;48.13;;;33.78;;
52858;SDS011;38721;53.098;6.596;2023-04-10T00:25:33;50.85;;;34.15;;
52858;SDS011;38721;53.098;6.596;2023-04-10T00:27:59;49.85;;;33.22;;
52858;SDS011;38721;53.098;6.596;2023-04-10T00:30:25;50.55;;;35.08;;
52858;SDS011;38721;53.098;6.596;2023-04-10T00:32:50;51.53;;;34.90;;
52858;SDS011;38721;53.098;6.596;2023-04-10T00:35:16;50.55;;;35.13;;
52858;SDS011;38721;53.098;6.596;2023-04-10T00:37:42;50.47;;;34.47;;
52858;SDS011;38721;53.098;6.596;2023-04-10T00:40:08;53.88;;;34.65;;
52858;SDS011;38721;53.098;6.596;2023-04-10T00:42:33;50.58;;;34.90;;
52858;SDS011;38721;53.098;6.596;2023-04-10T00:44:59;48.85;;;34.65;;
52858;SDS011;38721;53.098;6.596;2023-04-10T00:47:25;48.42;;;35.17;;
52858;SDS011;38721;53.098;6.596;2023-04-10T00:49:52;53.55;;;37.33;;
52858;SDS011;38721;53.098;6.596;2023-04-10T00:52:18;54.75;;;37.58;;
52858;SDS011;38721;53.098;6.596;2023-04-10T00:54:44;49.00;;;36.03;;
52858;SDS011;38721;53.098;6.596;2023-04-10T00:57:10;50.95;;;35.83;;
52858;SDS011;38721;53.098;6.596;2023-04-10T00:59:36;51.85;;;36.33;;
52858;SDS011;38721;53.098;6.596;2023-04-10T01:02:02;54.20;;;37.72;;
52858;SDS011;38721;53.098;6.596;2023-04-10T01:04:28;53.85;;;37.58;;
52858;SDS011;38721;53.098;6.596;2023-04-10T01:09:46;53.10;;;37.70;;
52858;SDS011;38721;53.098;6.596;2023-04-10T01:17:34;56.65;;;38.95;;
52858;SDS011;38721;53.098;6.596;2023-04-10T01:20:06;53.37;;;38.03;;
52858;SDS011;38721;53.098;6.596;2023-04-10T01:31:04;60.55;;;41.95;;
52858;SDS011;38721;53.098;6.596;2023-04-10T01:33:40;60.25;;;42.72;;
52858;SDS011;38721;53.098;6.596;2023-04-10T01:36:11;60.00;;;41.88;;
52858;SDS011;38721;53.098;6.596;2023-04-10T01:38:42;63.72;;;41.42;;
52858;SDS011;38721;53.098;6.596;2023-04-10T01:41:09;58.20;;;40.95;;
52858;SDS011;38721;53.098;6.596;2023-04-10T01:43:35;61.55;;;42.60;;
52858;SDS011;38721;53.098;6.596;2023-04-10T01:46:03;59.33;;;41.22;;
52858;SDS011;38721;53.098;6.596;2023-04-10T01:48:29;62.33;;;42.80;;
52858;SDS011;38721;53.098;6.596;2023-04-10T01:50:55;61.90;;;42.22;;
52858;SDS011;38721;53.098;6.596;2023-04-10T01:53:22;59.05;;;41.25;;
52858;SDS011;38721;53.098;6.596;2023-04-10T01:55:48;63.15;;;43.40;;
52858;SDS011;38721;53.098;6.596;2023-04-10T01:58:15;60.42;;;42.25;;
52858;SDS011;38721;53.098;6.596;2023-04-10T02:00:41;60.30;;;41.95;;
52858;SDS011;38721;53.098;6.596;2023-04-10T02:03:11;60.65;;;42.80;;
52858;SDS011;38721;53.098;6.596;2023-04-10T02:08:35;62.97;;;43.67;;
52858;SDS011;38721;53.098;6.596;2023-04-10T02:11:21;62.45;;;43.17;;
52858;SDS011;38721;53.098;6.596;2023-04-10T02:13:57;65.20;;;45.25;;
52858;SDS011;38721;53.098;6.596;2023-04-10T02:16:26;65.78;;;43.65;;
52858;SDS011;38721;53.098;6.596;2023-04-10T02:18:55;62.58;;;43.30;;
52858;SDS011;38721;53.098;6.596;2023-04-10T02:21:22;63.65;;;44.53;;
52858;SDS011;38721;53.098;6.596;2023-04-10T02:23:48;63.13;;;43.50;;
52858;SDS011;38721;53.098;6.596;2023-04-10T02:26:14;62.15;;;42.05;;
52858;SDS011;38721;53.098;6.596;2023-04-10T02:28:40;59.28;;;43.50;;
52858;SDS011;38721;53.098;6.596;2023-04-10T02:31:06;63.70;;;43.20;;
52858;SDS011;38721;53.098;6.596;2023-04-10T02:33:31;67.10;;;44.65;;
52858;SDS011;38721;53.098;6.596;2023-04-10T02:35:59;65.05;;;44.80;;
52858;SDS011;38721;53.098;6.596;2023-04-10T02:38:25;62.72;;;42.28;;
52858;SDS011;38721;53.098;6.596;2023-04-10T02:40:51;65.85;;;43.83;;
52858;SDS011;38721;53.098;6.596;2023-04-10T02:43:17;64.88;;;43.53;;
52858;SDS011;38721;53.098;6.596;2023-04-10T02:45:43;62.63;;;43.47;;
52858;SDS011;38721;53.098;6.596;2023-04-10T02:48:08;65.15;;;43.88;;
52858;SDS011;38721;53.098;6.596;2023-04-10T02:50:35;63.55;;;43.42;;
52858;SDS011;38721;53.098;6.596;2023-04-10T02:53:01;60.80;;;43.28;;
52858;SDS011;38721;53.098;6.596;2023-04-10T02:55:27;62.85;;;42.97;;
52858;SDS011;38721;53.098;6.596;2023-04-10T02:57:52;60.60;;;42.42;;
52858;SDS011;38721;53.098;6.596;2023-04-10T03:00:18;64.63;;;42.88;;
52858;SDS011;38721;53.098;6.596;2023-04-10T03:02:44;59.80;;;42.40;;
52858;SDS011;38721;53.098;6.596;2023-04-10T03:05:10;63.53;;;43.55;;
52858;SDS011;38721;53.098;6.596;2023-04-10T03:07:35;65.38;;;43.22;;
52858;SDS011;38721;53.098;6.596;2023-04-10T03:10:01;57.63;;;40.47;;
52858;SDS011;38721;53.098;6.596;2023-04-10T03:12:27;60.50;;;41.35;;
52858;SDS011;38721;53.098;6.596;2023-04-10T03:14:53;58.60;;;41.97;;
52858;SDS011;38721;53.098;6.596;2023-04-10T03:17:21;58.70;;;41.45;;
52858;SDS011;38721;53.098;6.596;2023-04-10T03:19:47;62.42;;;42.75;;
52858;SDS011;38721;53.098;6.596;2023-04-10T03:22:12;61.08;;;43.70;;
52858;SDS011;38721;53.098;6.596;2023-04-10T03:24:38;61.60;;;41.35;;
52858;SDS011;38721;53.098;6.596;2023-04-10T03:27:05;58.35;;;40.17;;
52858;SDS011;38721;53.098;6.596;2023-04-10T03:29:30;66.40;;;43.47;;
52858;SDS011;38721;53.098;6.596;2023-04-10T03:31:56;63.85;;;42.60;;
52858;SDS011;38721;53.098;6.596;2023-04-10T03:34:22;61.28;;;42.70;;
52858;SDS011;38721;53.098;6.596;2023-04-10T03:36:47;59.45;;;41.97;;
52858;SDS011;38721;53.098;6.596;2023-04-10T03:39:13;59.42;;;41.92;;
52858;SDS011;38721;53.098;6.596;2023-04-10T03:41:39;62.78;;;43.47;;
52858;SDS011;38721;53.098;6.596;2023-04-10T03:44:04;60.92;;;42.67;;
52858;SDS011;38721;53.098;6.596;2023-04-10T03:46:30;58.83;;;41.50;;
52858;SDS011;38721;53.098;6.596;2023-04-10T03:48:55;64.07;;;41.72;;
52858;SDS011;38721;53.098;6.596;2023-04-10T03:51:22;65.22;;;42.65;;
52858;SDS011;38721;53.098;6.596;2023-04-10T03:53:48;64.43;;;43.55;;
52858;SDS011;38721;53.098;6.596;2023-04-10T03:56:15;61.13;;;42.47;;
52858;SDS011;38721;53.098;6.596;2023-04-10T03:58:41;63.85;;;43.83;;
52858;SDS011;38721;53.098;6.596;2023-04-10T04:01:06;63.60;;;43.90;;
52858;SDS011;38721;53.098;6.596;2023-04-10T04:03:32;66.05;;;44.28;;
52858;SDS011;38721;53.098;6.596;2023-04-10T04:05:58;64.80;;;45.10;;
52858;SDS011;38721;53.098;6.596;2023-04-10T04:08:23;68.32;;;45.60;;
52858;SDS011;38721;53.098;6.596;2023-04-10T04:10:49;63.25;;;43.85;;
52858;SDS011;38721;53.098;6.596;2023-04-10T04:13:15;69.82;;;46.13;;
52858;SDS011;38721;53.098;6.596;2023-04-10T04:15:40;68.82;;;47.40;;
52858;SDS011;38721;53.098;6.596;2023-04-10T04:18:09;70.38;;;46.35;;
52858;SDS011;38721;53.098;6.596;2023-04-10T04:20:35;64.43;;;44.70;;
52858;SDS011;38721;53.098;6.596;2023-04-10T04:23:01;73.22;;;46.22;;
52858;SDS011;38721;53.098;6.596;2023-04-10T04:25:26;67.95;;;45.75;;
52858;SDS011;38721;53.098;6.596;2023-04-10T04:27:52;70.70;;;47.58;;
52858;SDS011;38721;53.098;6.596;2023-04-10T04:30:21;69.57;;;47.90;;
52858;SDS011;38721;53.098;6.596;2023-04-10T04:32:49;71.82;;;47.40;;
52858;SDS011;38721;53.098;6.596;2023-04-10T04:35:15;71.85;;;47.40;;
52858;SDS011;38721;53.098;6.596;2023-04-10T04:37:41;72.43;;;48.28;;
52858;SDS011;38721;53.098;6.596;2023-04-10T04:40:07;73.35;;;49.72;;
52858;SDS011;38721;53.098;6.596;2023-04-10T04:42:33;72.22;;;47.38;;
52858;SDS011;38721;53.098;6.596;2023-04-10T04:45:01;70.93;;;47.40;;
52858;SDS011;38721;53.098;6.596;2023-04-10T04:47:27;72.78;;;48.08;;
52858;SDS011;38721;53.098;6.596;2023-04-10T04:49:53;72.15;;;48.30;;
52858;SDS011;38721;53.098;6.596;2023-04-10T04:52:18;73.40;;;48.08;;
52858;SDS011;38721;53.098;6.596;2023-04-10T04:54:44;67.63;;;46.20;;
52858;SDS011;38721;53.098;6.596;2023-04-10T04:57:10;73.22;;;47.10;;
52858;SDS011;38721;53.098;6.596;2023-04-10T04:59:35;69.10;;;49.25;;
52858;SDS011;38721;53.098;6.596;2023-04-10T05:02:02;72.22;;;46.65;;
52858;SDS011;38721;53.098;6.596;2023-04-10T05:04:28;69.97;;;48.55;;
52858;SDS011;38721;53.098;6.596;2023-04-10T05:06:56;72.47;;;47.90;;
52858;SDS011;38721;53.098;6.596;2023-04-10T05:09:22;73.10;;;49.22;;
52858;SDS011;38721;53.098;6.596;2023-04-10T05:11:47;72.18;;;48.10;;
52858;SDS011;38721;53.098;6.596;2023-04-10T05:14:14;70.78;;;46.80;;
52858;SDS011;38721;53.098;6.596;2023-04-10T05:16:40;68.18;;;46.45;;
52858;SDS011;38721;53.098;6.596;2023-04-10T05:19:06;66.82;;;46.55;;
52858;SDS011;38721;53.098;6.596;2023-04-10T05:21:31;68.82;;;46.17;;
52858;SDS011;38721;53.098;6.596;2023-04-10T05:24:00;71.95;;;46.72;;
52858;SDS011;38721;53.098;6.596;2023-04-10T05:26:26;68.15;;;46.15;;
52858;SDS011;38721;53.098;6.596;2023-04-10T05:28:51;67.25;;;46.47;;
52858;SDS011;38721;53.098;6.596;2023-04-10T05:31:17;69.35;;;47.13;;
52858;SDS011;38721;53.098;6.596;2023-04-10T05:33:43;62.05;;;44.33;;
52858;SDS011;38721;53.098;6.596;2023-04-10T05:36:09;65.90;;;45.25;;
52858;SDS011;38721;53.098;6.596;2023-04-10T05:38:35;64.55;;;44.75;;
52858;SDS011;38721;53.098;6.596;2023-04-10T05:41:00;60.95;;;43.72;;
52858;SDS011;38721;53.098;6.596;2023-04-10T05:43:26;62.58;;;43.78;;
52858;SDS011;38721;53.098;6.596;2023-04-10T05:45:51;62.35;;;42.83;;
52858;SDS011;38721;53.098;6.596;2023-04-10T05:48:17;62.72;;;40.85;;
52858;SDS011;38721;53.098;6.596;2023-04-10T05:50:43;61.85;;;42.75;;
52858;SDS011;38721;53.098;6.596;2023-04-10T05:53:11;62.42;;;42.20;;
52858;SDS011;38721;53.098;6.596;2023-04-10T05:55:38;61.03;;;42.20;;
52858;SDS011;38721;53.098;6.596;2023-04-10T05:58:03;56.25;;;38.67;;
52858;SDS011;38721;53.098;6.596;2023-04-10T06:00:29;55.75;;;38.92;;
52858;SDS011;38721;53.098;6.596;2023-04-10T06:02:55;52.90;;;37.88;;
52858;SDS011;38721;53.098;6.596;2023-04-10T06:05:21;52.55;;;37.55;;
52858;SDS011;38721;53.098;6.596;2023-04-10T06:07:46;52.88;;;35.67;;
52858;SDS011;38721;53.098;6.596;2023-04-10T06:10:12;52.28;;;35.08;;
52858;SDS011;38721;53.098;6.596;2023-04-10T06:12:38;54.58;;;36.92;;
52858;SDS011;38721;53.098;6.596;2023-04-10T06:15:03;50.35;;;33.65;;
52858;SDS011;38721;53.098;6.596;2023-04-10T06:17:29;46.85;;;33.13;;
52858;SDS011;38721;53.098;6.596;2023-04-10T06:19:55;50.78;;;36.20;;
52858;SDS011;38721;53.098;6.596;2023-04-10T06:22:23;50.08;;;34.40;;
52858;SDS011;38721;53.098;6.596;2023-04-10T06:24:49;48.58;;;34.03;;
52858;SDS011;38721;53.098;6.596;2023-04-10T06:27:15;48.35;;;33.72;;
52858;SDS011;38721;53.098;6.596;2023-04-10T06:29:43;47.03;;;33.53;;
52858;SDS011;38721;53.098;6.596;2023-04-10T06:32:09;45.10;;;33.33;;
52858;SDS011;38721;53.098;6.596;2023-04-10T06:34:35;49.42;;;35.13;;
52858;SDS011;38721;53.098;6.596;2023-04-10T06:37:00;46.28;;;34.28;;
52858;SDS011;38721;53.098;6.596;2023-04-10T06:39:27;46.85;;;33.22;;
52858;SDS011;38721;53.098;6.596;2023-04-10T06:41:52;45.05;;;32.58;;
52858;SDS011;38721;53.098;6.596;2023-04-10T06:44:18;44.72;;;30.55;;
52858;SDS011;38721;53.098;6.596;2023-04-10T06:46:44;45.00;;;32.30;;
52858;SDS011;38721;53.098;6.596;2023-04-10T06:49:10;46.00;;;32.70;;
52858;SDS011;38721;53.098;6.596;2023-04-10T06:51:35;46.50;;;31.90;;
52858;SDS011;38721;53.098;6.596;2023-04-10T06:54:01;46.03;;;32.60;;
52858;SDS011;38721;53.098;6.596;2023-04-10T06:56:27;49.78;;;33.10;;
52858;SDS011;38721;53.098;6.596;2023-04-10T06:58:52;47.25;;;34.15;;
52858;SDS011;38721;53.098;6.596;2023-04-10T07:01:18;50.53;;;35.60;;
52858;SDS011;38721;53.098;6.596;2023-04-10T07:03:43;48.38;;;34.05;;
52858;SDS011;38721;53.098;6.596;2023-04-10T07:06:09;49.45;;;35.53;;
52858;SDS011;38721;53.098;6.596;2023-04-10T07:08:36;51.08;;;36.75;;
52858;SDS011;38721;53.098;6.596;2023-04-10T07:11:01;52.83;;;37.33;;
52858;SDS011;38721;53.098;6.596;2023-04-10T07:13:27;53.10;;;38.47;;
52858;SDS011;38721;53.098;6.596;2023-04-10T07:15:53;50.45;;;37.13;;
52858;SDS011;38721;53.098;6.596;2023-04-10T07:18:18;51.50;;;36.65;;
52858;SDS011;38721;53.098;6.596;2023-04-10T07:20:44;53.22;;;37.90;;
52858;SDS011;38721;53.098;6.596;2023-04-10T07:23:13;51.58;;;36.65;;
52858;SDS011;38721;53.098;6.596;2023-04-10T07:25:40;54.05;;;36.75;;
52858;SDS011;38721;53.098;6.596;2023-04-10T07:28:07;49.58;;;34.70;;
52858;SDS011;38721;53.098;6.596;2023-04-10T07:30:32;50.90;;;36.38;;
52858;SDS011;38721;53.098;6.596;2023-04-10T07:32:58;47.40;;;34.45;;
52858;SDS011;38721;53.098;6.596;2023-04-10T07:35:24;44.80;;;33.92;;
52858;SDS011;38721;53.098;6.596;2023-04-10T07:37:53;48.65;;;33.03;;
52858;SDS011;38721;53.098;6.596;2023-04-10T07:40:19;45.65;;;32.42;;
52858;SDS011;38721;53.098;6.596;2023-04-10T07:42:45;48.42;;;33.15;;
52858;SDS011;38721;53.098;6.596;2023-04-10T07:45:11;43.17;;;31.60;;
52858;SDS011;38721;53.098;6.596;2023-04-10T07:47:37;42.95;;;30.63;;
52858;SDS011;38721;53.098;6.596;2023-04-10T07:50:03;41.88;;;29.33;;
52858;SDS011;38721;53.098;6.596;2023-04-10T07:52:29;39.22;;;28.55;;
52858;SDS011;38721;53.098;6.596;2023-04-10T07:55:00;39.05;;;27.90;;
52858;SDS011;38721;53.098;6.596;2023-04-10T07:57:27;42.42;;;28.00;;
52858;SDS011;38721;53.098;6.596;2023-04-10T07:59:52;40.03;;;28.75;;
52858;SDS011;38721;53.098;6.596;2023-04-10T08:02:18;36.63;;;27.42;;
52858;SDS011;38721;53.098;6.596;2023-04-10T08:04:44;37.00;;;27.52;;
52858;SDS011;38721;53.098;6.596;2023-04-10T08:07:13;40.30;;;28.45;;
52858;SDS011;38721;53.098;6.596;2023-04-10T08:09:38;39.58;;;28.73;;
52858;SDS011;38721;53.098;6.596;2023-04-10T08:12:04;37.58;;;27.88;;
52858;SDS011;38721;53.098;6.596;2023-04-10T08:14:30;39.80;;;29.17;;
52858;SDS011;38721;53.098;6.596;2023-04-10T08:16:55;41.78;;;31.10;;
52858;SDS011;38721;53.098;6.596;2023-04-10T08:19:21;39.67;;;29.63;;
52858;SDS011;38721;53.098;6.596;2023-04-10T08:21:47;39.22;;;28.83;;
52858;SDS011;38721;53.098;6.596;2023-04-10T08:24:13;40.72;;;29.65;;
52858;SDS011;38721;53.098;6.596;2023-04-10T08:26:38;41.25;;;30.20;;
52858;SDS011;38721;53.098;6.596;2023-04-10T08:29:04;38.72;;;27.83;;
52858;SDS011;38721;53.098;6.596;2023-04-10T08:31:30;36.60;;;28.25;;
52858;SDS011;38721;53.098;6.596;2023-04-10T08:33:56;34.22;;;25.63;;
52858;SDS011;38721;53.098;6.596;2023-04-10T08:36:21;35.63;;;25.02;;
52858;SDS011;38721;53.098;6.596;2023-04-10T08:38:47;37.13;;;26.48;;
52858;SDS011;38721;53.098;6.596;2023-04-10T08:41:14;34.25;;;24.60;;
52858;SDS011;38721;53.098;6.596;2023-04-10T08:43:44;32.70;;;23.83;;
52858;SDS011;38721;53.098;6.596;2023-04-10T08:46:11;35.30;;;24.05;;
52858;SDS011;38721;53.098;6.596;2023-04-10T08:48:39;32.90;;;23.65;;
52858;SDS011;38721;53.098;6.596;2023-04-10T08:51:13;30.90;;;23.15;;
52858;SDS011;38721;53.098;6.596;2023-04-10T08:53:42;30.40;;;23.45;;
52858;SDS011;38721;53.098;6.596;2023-04-10T08:56:11;29.15;;;22.65;;
52858;SDS011;38721;53.098;6.596;2023-04-10T08:58:40;29.17;;;21.92;;
52858;SDS011;38721;53.098;6.596;2023-04-10T09:01:07;29.90;;;21.55;;
52858;SDS011;38721;53.098;6.596;2023-04-10T09:03:34;29.00;;;21.30;;
52858;SDS011;38721;53.098;6.596;2023-04-10T09:06:03;28.63;;;21.73;;
52858;SDS011;38721;53.098;6.596;2023-04-10T09:08:29;26.52;;;20.98;;
52858;SDS011;38721;53.098;6.596;2023-04-10T09:10:57;30.45;;;19.90;;
52858;SDS011;38721;53.098;6.596;2023-04-10T09:13:35;27.90;;;20.55;;
52858;SDS011;38721;53.098;6.596;2023-04-10T09:16:02;26.55;;;19.90;;
52858;SDS011;38721;53.098;6.596;2023-04-10T09:21:15;25.08;;;19.25;;
52858;SDS011;38721;53.098;6.596;2023-04-10T09:23:43;24.65;;;18.30;;
52858;SDS011;38721;53.098;6.596;2023-04-10T09:26:29;23.08;;;17.38;;
52858;SDS011;38721;53.098;6.596;2023-04-10T09:29:05;21.48;;;17.38;;
52858;SDS011;38721;53.098;6.596;2023-04-10T09:31:37;22.65;;;16.48;;
52858;SDS011;38721;53.098;6.596;2023-04-10T09:34:10;23.48;;;17.65;;
52858;SDS011;38721;53.098;6.596;2023-04-10T09:36:52;22.35;;;16.65;;
52858;SDS011;38721;53.098;6.596;2023-04-10T09:41:58;21.58;;;16.48;;
52858;SDS011;38721;53.098;6.596;2023-04-10T09:44:28;20.05;;;15.98;;
52858;SDS011;38721;53.098;6.596;2023-04-10T09:46:55;18.35;;;14.68;;
52858;SDS011;38721;53.098;6.596;2023-04-10T09:49:46;19.83;;;15.60;;
52858;SDS011;38721;53.098;6.596;2023-04-10T09:52:23;20.40;;;15.55;;
52858;SDS011;38721;53.098;6.596;2023-04-10T09:55:02;16.83;;;14.15;;
52858;SDS011;38721;53.098;6.596;2023-04-10T09:57:30;20.45;;;15.55;;
52858;SDS011;38721;53.098;6.596;2023-04-10T09:59:58;20.98;;;15.38;;
52858;SDS011;38721;53.098;6.596;2023-04-10T10:02:27;17.85;;;15.05;;
52858;SDS011;38721;53.098;6.596;2023-04-10T10:04:54;19.73;;;15.48;;
52858;SDS011;38721;53.098;6.596;2023-04-10T10:07:21;17.42;;;14.13;;
52858;SDS011;38721;53.098;6.596;2023-04-10T10:09:51;17.48;;;13.93;;
52858;SDS011;38721;53.098;6.596;2023-04-10T10:12:25;18.52;;;13.63;;
52858;SDS011;38721;53.098;6.596;2023-04-10T10:20:36;19.73;;;15.27;;
52858;SDS011;38721;53.098;6.596;2023-04-10T10:23:05;16.90;;;13.77;;
52858;SDS011;38721;53.098;6.596;2023-04-10T10:25:33;16.20;;;12.65;;
52858;SDS011;38721;53.098;6.596;2023-04-10T10:28:03;14.25;;;11.65;;
52858;SDS011;38721;53.098;6.596;2023-04-10T10:30:33;13.55;;;11.40;;
52858;SDS011;38721;53.098;6.596;2023-04-10T10:33:00;16.33;;;11.52;;
52858;SDS011;38721;53.098;6.596;2023-04-10T10:35:31;14.38;;;11.70;;
52858;SDS011;38721;53.098;6.596;2023-04-10T10:38:00;11.77;;;9.95;;
52858;SDS011;38721;53.098;6.596;2023-04-10T10:45:55;12.05;;;10.25;;
52858;SDS011;38721;53.098;6.596;2023-04-10T10:48:34;11.10;;;9.90;;
52858;SDS011;38721;53.098;6.596;2023-04-10T10:51:00;12.57;;;10.10;;
52858;SDS011;38721;53.098;6.596;2023-04-10T10:53:41;12.38;;;9.65;;
52858;SDS011;38721;53.098;6.596;2023-04-10T10:58:46;12.80;;;10.38;;
52858;SDS011;38721;53.098;6.596;2023-04-10T11:01:13;13.13;;;10.55;;
52858;SDS011;38721;53.098;6.596;2023-04-10T11:03:39;10.77;;;8.77;;
52858;SDS011;38721;53.098;6.596;2023-04-10T11:06:09;12.07;;;9.68;;
52858;SDS011;38721;53.098;6.596;2023-04-10T11:08:46;10.20;;;9.10;;
52858;SDS011;38721;53.098;6.596;2023-04-10T11:11:21;11.50;;;9.15;;
52858;SDS011;38721;53.098;6.596;2023-04-10T11:16:17;10.75;;;7.97;;
52858;SDS011;38721;53.098;6.596;2023-04-10T11:28:59;9.25;;;7.15;;
52858;SDS011;38721;53.098;6.596;2023-04-10T11:34:27;8.30;;;6.65;;
52858;SDS011;38721;53.098;6.596;2023-04-10T11:36:55;7.38;;;6.22;;
52858;SDS011;38721;53.098;6.596;2023-04-10T11:39:21;7.97;;;6.32;;
52858;SDS011;38721;53.098;6.596;2023-04-10T11:41:47;7.70;;;6.03;;
52858;SDS011;38721;53.098;6.596;2023-04-10T11:44:28;8.13;;;6.20;;
52858;SDS011;38721;53.098;6.596;2023-04-10T11:47:00;7.82;;;6.20;;
52858;SDS011;38721;53.098;6.596;2023-04-10T11:49:28;7.53;;;6.40;;
52858;SDS011;38721;53.098;6.596;2023-04-10T11:51:55;6.80;;;6.00;;
52858;SDS011;38721;53.098;6.596;2023-04-10T11:54:22;6.50;;;5.45;;
52858;SDS011;38721;53.098;6.596;2023-04-10T11:59:30;7.50;;;5.50;;
52858;SDS011;38721;53.098;6.596;2023-04-10T12:02:03;7.45;;;6.65;;
52858;SDS011;38721;53.098;6.596;2023-04-10T12:04:34;6.32;;;5.45;;
52858;SDS011;38721;53.098;6.596;2023-04-10T12:07:00;6.50;;;5.72;;
52858;SDS011;38721;53.098;6.596;2023-04-10T12:09:27;9.00;;;5.13;;
52858;SDS011;38721;53.098;6.596;2023-04-10T12:14:34;6.32;;;5.25;;
52858;SDS011;38721;53.098;6.596;2023-04-10T12:17:03;6.32;;;5.18;;
52858;SDS011;38721;53.098;6.596;2023-04-10T12:19:30;7.40;;;4.70;;
52858;SDS011;38721;53.098;6.596;2023-04-10T12:21:58;6.03;;;4.90;;
52858;SDS011;38721;53.098;6.596;2023-04-10T12:27:24;5.88;;;4.78;;
52858;SDS011;38721;53.098;6.596;2023-04-10T12:29:55;5.63;;;4.40;;
52858;SDS011;38721;53.098;6.596;2023-04-10T12:32:23;8.57;;;4.97;;
52858;SDS011;38721;53.098;6.596;2023-04-10T12:34:50;6.93;;;4.65;;
52858;SDS011;38721;53.098;6.596;2023-04-10T12:37:23;7.35;;;5.07;;
52858;SDS011;38721;53.098;6.596;2023-04-10T12:39:51;7.40;;;5.85;;
52858;SDS011;38721;53.098;6.596;2023-04-10T12:42:17;6.07;;;4.55;;
52858;SDS011;38721;53.098;6.596;2023-04-10T12:44:48;6.80;;;5.30;;
52858;SDS011;38721;53.098;6.596;2023-04-10T12:47:15;8.60;;;4.53;;
52858;SDS011;38721;53.098;6.596;2023-04-10T12:49:41;7.88;;;4.70;;
52858;SDS011;38721;53.098;6.596;2023-04-10T12:52:06;6.70;;;4.90;;
52858;SDS011;38721;53.098;6.596;2023-04-10T12:54:33;7.95;;;4.68;;
52858;SDS011;38721;53.098;6.596;2023-04-10T12:57:01;6.28;;;4.68;;
52858;SDS011;38721;53.098;6.596;2023-04-10T12:59:30;5.60;;;4.65;;
52858;SDS011;38721;53.098;6.596;2023-04-10T13:01:56;7.07;;;4.60;;
52858;SDS011;38721;53.098;6.596;2023-04-10T13:04:22;8.57;;;4.72;;
52858;SDS011;38721;53.098;6.596;2023-04-10T13:06:48;6.35;;;4.85;;
52858;SDS011;38721;53.098;6.596;2023-04-10T13:09:16;5.97;;;4.80;;
52858;SDS011;38721;53.098;6.596;2023-04-10T13:11:45;5.80;;;4.70;;
52858;SDS011;38721;53.098;6.596;2023-04-10T13:14:11;6.32;;;5.18;;
52858;SDS011;38721;53.098;6.596;2023-04-10T13:16:36;5.43;;;4.70;;
52858;SDS011;38721;53.098;6.596;2023-04-10T13:19:02;8.45;;;4.95;;
52858;SDS011;38721;53.098;6.596;2023-04-10T13:21:28;6.00;;;4.93;;
52858;SDS011;38721;53.098;6.596;2023-04-10T13:23:54;8.23;;;5.10;;
52858;SDS011;38721;53.098;6.596;2023-04-10T13:26:20;7.60;;;5.18;;
52858;SDS011;38721;53.098;6.596;2023-04-10T13:28:46;6.15;;;5.00;;
52858;SDS011;38721;53.098;6.596;2023-04-10T13:31:12;5.47;;;4.65;;
52858;SDS011;38721;53.098;6.596;2023-04-10T13:33:39;5.75;;;4.75;;
52858;SDS011;38721;53.098;6.596;2023-04-10T13:36:06;5.90;;;4.93;;
52858;SDS011;38721;53.098;6.596;2023-04-10T13:38:32;6.35;;;5.50;;
52858;SDS011;38721;53.098;6.596;2023-04-10T13:40:58;6.07;;;5.45;;
52858;SDS011;38721;53.098;6.596;2023-04-10T13:43:23;6.22;;;5.32;;
52858;SDS011;38721;53.098;6.596;2023-04-10T13:45:49;7.45;;;5.68;;
52858;SDS011;38721;53.098;6.596;2023-04-10T13:48:15;7.22;;;5.15;;
52858;SDS011;38721;53.098;6.596;2023-04-10T13:50:42;6.72;;;5.32;;
52858;SDS011;38721;53.098;6.596;2023-04-10T13:53:08;7.15;;;5.28;;
52858;SDS011;38721;53.098;6.596;2023-04-10T13:55:34;7.82;;;5.57;;
52858;SDS011;38721;53.098;6.596;2023-04-10T13:58:02;8.10;;;5.63;;
52858;SDS011;38721;53.098;6.596;2023-04-10T14:00:27;5.93;;;4.75;;
52858;SDS011;38721;53.098;6.596;2023-04-10T14:02:53;7.95;;;5.53;;
52858;SDS011;38721;53.098;6.596;2023-04-10T14:05:21;5.70;;;5.10;;
52858;SDS011;38721;53.098;6.596;2023-04-10T14:07:47;6.18;;;4.88;;
52858;SDS011;38721;53.098;6.596;2023-04-10T14:10:15;6.18;;;5.20;;
52858;SDS011;38721;53.098;6.596;2023-04-10T14:12:41;6.28;;;5.32;;
52858;SDS011;38721;53.098;6.596;2023-04-10T14:15:07;5.30;;;4.80;;
52858;SDS011;38721;53.098;6.596;2023-04-10T14:17:33;6.07;;;5.25;;
52858;SDS011;38721;53.098;6.596;2023-04-10T14:19:58;7.28;;;5.28;;
52858;SDS011;38721;53.098;6.596;2023-04-10T14:22:24;5.38;;;4.80;;
52858;SDS011;38721;53.098;6.596;2023-04-10T14:24:50;6.72;;;5.18;;
52858;SDS011;38721;53.098;6.596;2023-04-10T14:27:16;5.90;;;4.68;;
52858;SDS011;38721;53.098;6.596;2023-04-10T14:29:42;7.03;;;4.93;;
52858;SDS011;38721;53.098;6.596;2023-04-10T14:32:07;5.93;;;5.15;;
52858;SDS011;38721;53.098;6.596;2023-04-10T14:34:33;7.25;;;5.25;;
52858;SDS011;38721;53.098;6.596;2023-04-10T14:36:58;8.88;;;5.00;;
52858;SDS011;38721;53.098;6.596;2023-04-10T14:39:24;6.60;;;5.00;;
52858;SDS011;38721;53.098;6.596;2023-04-10T14:41:51;8.02;;;5.03;;
52858;SDS011;38721;53.098;6.596;2023-04-10T14:44:17;8.65;;;4.90;;
52858;SDS011;38721;53.098;6.596;2023-04-10T14:46:43;5.35;;;4.82;;
52858;SDS011;38721;53.098;6.596;2023-04-10T14:49:09;5.85;;;4.68;;
52858;SDS011;38721;53.098;6.596;2023-04-10T14:51:35;7.05;;;4.57;;
52858;SDS011;38721;53.098;6.596;2023-04-10T14:54:01;6.28;;;4.50;;
52858;SDS011;38721;53.098;6.596;2023-04-10T14:56:28;5.60;;;4.68;;
52858;SDS011;38721;53.098;6.596;2023-04-10T14:58:54;5.10;;;4.40;;
52858;SDS011;38721;53.098;6.596;2023-04-10T15:01:19;5.88;;;4.60;;
52858;SDS011;38721;53.098;6.596;2023-04-10T15:03:45;6.88;;;4.68;;
52858;SDS011;38721;53.098;6.596;2023-04-10T15:06:12;6.13;;;4.75;;
52858;SDS011;38721;53.098;6.596;2023-04-10T15:08:38;6.53;;;4.43;;
52858;SDS011;38721;53.098;6.596;2023-04-10T15:11:03;5.70;;;5.00;;
52858;SDS011;38721;53.098;6.596;2023-04-10T15:13:29;5.35;;;4.78;;
52858;SDS011;38721;53.098;6.596;2023-04-10T15:15:55;7.75;;;5.22;;
52858;SDS011;38721;53.098;6.596;2023-04-10T15:18:21;6.45;;;5.25;;
52858;SDS011;38721;53.098;6.596;2023-04-10T15:20:50;9.02;;;5.05;;
52858;SDS011;38721;53.098;6.596;2023-04-10T15:23:16;5.88;;;4.90;;
52858;SDS011;38721;53.098;6.596;2023-04-10T15:25:42;5.53;;;4.78;;
52858;SDS011;38721;53.098;6.596;2023-04-10T15:28:08;7.38;;;4.63;;
52858;SDS011;38721;53.098;6.596;2023-04-10T15:30:33;6.32;;;4.90;;